createdAt,value
2022-10-04T00:01:55.142Z,100.00
2022-10-04T00:07:11.998Z,100.00
2022-10-04T00:12:28.051Z,100.00
2022-10-04T00:17:31.949Z,100.00
2022-10-04T00:22:33.582Z,100.00
2022-10-04T00:27:36.908Z,100.00
2022-10-04T00:32:38.402Z,100.00
2022-10-04T00:38:16.995Z,100.00
2022-10-04T00:43:29.244Z,100.00
2022-10-04T00:48:34.117Z,100.00
2022-10-04T00:54:26.854Z,100.00
2022-10-04T00:59:31.381Z,100.00
2022-10-04T01:04:53.137Z,100.00
2022-10-04T01:09:59.975Z,100.00
2022-10-04T01:15:01.415Z,100.00
2022-10-04T01:20:31.700Z,100.00
2022-10-04T01:25:46.761Z,100.00
2022-10-04T01:30:48.804Z,100.00
2022-10-04T01:35:50.664Z,100.00
2022-10-04T01:40:57.480Z,100.00
2022-10-04T01:46:02.640Z,100.00
2022-10-04T01:51:17.048Z,100.00
2022-10-04T01:56:24.340Z,100.00
2022-10-04T02:01:34.387Z,100.00
2022-10-04T02:06:39.739Z,100.00
2022-10-04T02:11:44.545Z,100.00
2022-10-04T02:16:49.394Z,100.00
2022-10-04T02:21:52.212Z,100.00
2022-10-04T02:26:53.835Z,100.00
2022-10-04T02:31:55.433Z,100.00
2022-10-04T02:36:57.351Z,100.00
2022-10-04T02:42:35.202Z,100.00
2022-10-04T02:47:48.239Z,100.00
2022-10-04T02:52:55.854Z,100.00
2022-10-04T02:57:58.599Z,100.00
2022-10-04T03:03:09.304Z,100.00
2022-10-04T03:08:11.284Z,100.00
2022-10-04T03:13:14.552Z,100.00
2022-10-04T03:18:17.963Z,100.00
2022-10-04T03:23:21.247Z,100.00
2022-10-04T03:28:22.952Z,100.00
2022-10-04T03:33:29.454Z,100.00
2022-10-04T03:38:35.030Z,100.00
2022-10-04T03:43:42.583Z,100.00
2022-10-04T03:48:48.087Z,100.00
2022-10-04T03:53:53.084Z,100.00
2022-10-04T03:58:55.867Z,100.00
2022-10-04T04:04:56.117Z,100.00
2022-10-04T04:10:23.546Z,100.00
2022-10-04T04:15:28.554Z,100.00
2022-10-04T04:20:38.241Z,100.00
2022-10-04T04:25:46.641Z,100.00
2022-10-04T04:30:53.178Z,100.00
2022-10-04T04:36:02.516Z,100.00
2022-10-04T04:41:10.990Z,100.00
2022-10-04T04:46:26.993Z,100.00
2022-10-04T04:51:31.770Z,100.00
2022-10-04T04:56:34.701Z,100.00
2022-10-04T05:01:43.377Z,100.00
2022-10-04T05:06:47.363Z,100.00
2022-10-04T05:11:49.991Z,100.00
2022-10-04T05:16:54.234Z,100.00
2022-10-04T05:21:59.347Z,100.00
2022-10-04T05:27:23.159Z,100.00
2022-10-04T05:32:55.698Z,100.00
2022-10-04T05:38:24.371Z,100.00
2022-10-04T05:43:37.541Z,100.00
2022-10-04T05:48:41.594Z,100.00
2022-10-04T05:53:43.221Z,100.00
2022-10-04T05:59:26.357Z,100.00
2022-10-04T06:05:02.455Z,100.00
2022-10-04T06:10:24.984Z,100.00
2022-10-04T06:15:38.759Z,100.00
2022-10-04T06:20:51.686Z,100.00
2022-10-04T06:25:58.700Z,100.00
2022-10-04T06:31:22.030Z,100.00
2022-10-04T06:36:45.521Z,100.00
2022-10-04T06:41:47.144Z,100.00
2022-10-04T06:47:13.568Z,100.00
2022-10-04T06:52:29.325Z,100.00
2022-10-04T06:58:05.043Z,100.00
2022-10-04T07:03:21.191Z,100.00
2022-10-04T07:08:51.787Z,100.00
2022-10-04T07:14:03.438Z,100.00
2022-10-04T07:19:26.812Z,100.00
2022-10-04T07:24:38.130Z,100.00
2022-10-04T07:29:43.045Z,100.00
2022-10-04T07:34:44.472Z,100.00
2022-10-04T07:39:51.587Z,100.00
2022-10-04T07:45:19.011Z,100.00
2022-10-04T07:50:36.597Z,100.00
2022-10-04T07:55:51.479Z,100.00
2022-10-04T08:01:01.500Z,100.00
2022-10-04T08:06:12.694Z,100.00
2022-10-04T08:11:57.345Z,100.00
2022-10-04T08:17:15.465Z,100.00
2022-10-04T08:22:29.662Z,100.00
2022-10-04T08:27:43.225Z,100.00
2022-10-04T08:33:27.617Z,100.00
2022-10-04T08:38:34.984Z,100.00
2022-10-04T08:43:56.282Z,100.00
2022-10-04T08:49:55.320Z,100.00
2022-10-04T08:55:29.208Z,100.00
2022-10-04T09:00:52.396Z,100.00
2022-10-04T09:05:59.309Z,100.00
2022-10-04T09:11:22.085Z,99.97
2022-10-04T09:16:46.474Z,100.00
2022-10-04T09:21:56.821Z,100.00
2022-10-04T09:27:04.430Z,100.00
2022-10-04T09:32:27.472Z,100.00
2022-10-04T09:38:00.147Z,98.88
2022-10-04T09:43:21.138Z,96.28
2022-10-04T09:48:32.672Z,97.13
2022-10-04T09:53:42.224Z,91.16
2022-10-04T09:59:09.486Z,90.57
2022-10-04T10:04:38.084Z,82.42
2022-10-04T10:10:06.328Z,82.94
2022-10-04T10:15:22.495Z,82.82
2022-10-04T10:20:32.827Z,86.55
2022-10-04T10:26:03.979Z,88.31
2022-10-04T10:31:32.400Z,79.67
2022-10-04T10:37:09.348Z,78.52
2022-10-04T10:42:32.879Z,82.68
2022-10-04T10:47:52.369Z,72.97
2022-10-04T10:53:11.839Z,73.39
2022-10-04T10:58:47.561Z,73.72
2022-10-04T11:04:13.917Z,74.23
2022-10-04T11:09:51.060Z,71.68
2022-10-04T11:15:05.733Z,68.01
2022-10-04T11:20:32.923Z,66.59
2022-10-04T11:25:57.430Z,68.74
2022-10-04T11:30:58.977Z,65.26
2022-10-04T11:36:26.678Z,68.42
2022-10-04T11:42:01.143Z,71.54
2022-10-04T11:47:24.402Z,66.54
2022-10-04T11:52:28.558Z,66.39
2022-10-04T11:57:47.990Z,64.98
2022-10-04T12:03:04.589Z,70.92
2022-10-04T12:08:30.800Z,67.98
2022-10-04T12:13:57.475Z,64.81
2022-10-04T12:19:29.724Z,64.75
2022-10-04T12:25:02.121Z,63.01
2022-10-04T12:30:21.997Z,69.60
2022-10-04T12:35:30.711Z,68.19
2022-10-04T12:40:42.244Z,61.95
2022-10-04T12:46:21.879Z,61.49
2022-10-04T12:51:32.476Z,63.46
2022-10-04T12:56:51.011Z,62.89
2022-10-04T13:02:24.747Z,65.99
2022-10-04T13:07:35.338Z,63.95
2022-10-04T13:12:55.045Z,65.28
2022-10-04T13:18:22.390Z,68.34
2022-10-04T13:23:35.865Z,64.60
2022-10-04T13:28:50.435Z,62.27
2022-10-04T13:34:12.151Z,62.72
2022-10-04T13:39:25.522Z,62.84
2022-10-04T13:44:59.080Z,64.52
2022-10-04T13:50:15.849Z,65.14
2022-10-04T13:55:40.303Z,64.00
2022-10-04T14:01:21.926Z,65.48
2022-10-04T14:06:38.466Z,67.22
2022-10-04T14:12:05.973Z,68.79
2022-10-04T14:17:49.203Z,64.49
2022-10-04T14:23:08.807Z,66.24
2022-10-04T14:28:35.177Z,66.95
2022-10-04T14:33:47.047Z,66.83
2022-10-04T14:39:13.162Z,69.62
2022-10-04T14:44:26.157Z,69.15
2022-10-04T14:49:40.446Z,65.77
2022-10-04T14:55:08.024Z,68.20
2022-10-04T15:00:47.964Z,70.69
2022-10-04T15:05:52.406Z,70.00
2022-10-04T15:11:09.556Z,70.46
2022-10-04T15:16:36.240Z,71.31
2022-10-04T15:21:52.590Z,75.74
2022-10-04T15:27:06.084Z,76.00
2022-10-04T15:32:35.932Z,75.83
2022-10-04T15:37:49.377Z,78.74
2022-10-04T15:43:02.881Z,81.77
2022-10-04T15:48:07.345Z,84.53
2022-10-04T15:53:46.113Z,89.00
2022-10-04T15:59:06.135Z,90.13
2022-10-04T16:04:16.546Z,91.39
2022-10-04T16:09:29.849Z,92.89
2022-10-04T16:14:43.287Z,96.55
2022-10-04T16:20:25.859Z,98.35
2022-10-04T16:25:38.310Z,98.09
2022-10-04T16:30:59.488Z,100.00
2022-10-04T16:36:08.444Z,100.00
2022-10-04T16:41:15.892Z,100.00
2022-10-04T16:46:37.275Z,100.00
2022-10-04T16:51:38.861Z,100.00
2022-10-04T16:56:52.608Z,100.00
2022-10-04T17:02:36.728Z,100.00
2022-10-04T17:08:27.560Z,97.08
2022-10-04T17:13:47.610Z,92.86
2022-10-04T17:19:26.425Z,90.46
2022-10-04T17:24:33.660Z,89.92
2022-10-04T17:29:50.554Z,88.64
2022-10-04T17:34:51.975Z,89.17
2022-10-04T17:40:27.156Z,89.11
2022-10-04T17:45:46.835Z,90.05
2022-10-04T17:51:09.770Z,91.47
2022-10-04T17:56:13.548Z,94.10
2022-10-04T18:01:44.717Z,96.44
2022-10-04T18:06:53.017Z,99.20
2022-10-04T18:11:59.609Z,100.00
2022-10-04T18:17:06.313Z,100.00
2022-10-04T18:22:10.715Z,100.00
2022-10-04T18:27:25.246Z,100.00
2022-10-04T18:32:26.788Z,100.00
2022-10-04T18:37:34.859Z,100.00
2022-10-04T18:42:40.881Z,100.00
2022-10-04T18:47:42.452Z,99.87
2022-10-04T18:53:13.314Z,100.00
2022-10-04T18:58:29.652Z,100.00
2022-10-04T19:03:40.821Z,100.00
2022-10-04T19:09:06.833Z,100.00
2022-10-04T19:14:17.193Z,100.00
2022-10-04T19:19:42.190Z,100.00
2022-10-04T19:25:10.018Z,100.00
2022-10-04T19:30:30.660Z,100.00
2022-10-04T19:35:53.660Z,100.00
2022-10-04T19:41:16.694Z,100.00
2022-10-04T19:46:24.312Z,100.00
2022-10-04T19:51:43.525Z,100.00
2022-10-04T19:56:53.857Z,100.00
2022-10-04T20:01:55.753Z,100.00
2022-10-04T20:06:59.254Z,100.00
2022-10-04T20:12:01.260Z,100.00
2022-10-04T20:17:04.446Z,100.00
2022-10-04T20:22:08.760Z,100.00
2022-10-04T20:27:25.560Z,100.00
2022-10-04T20:32:27.096Z,100.00
2022-10-04T20:37:43.810Z,100.00
2022-10-04T20:43:14.380Z,100.00
2022-10-04T20:48:22.093Z,100.00
2022-10-04T20:53:31.598Z,100.00
2022-10-04T20:58:34.622Z,100.00
2022-10-04T21:03:36.145Z,100.00
2022-10-04T21:08:38.799Z,100.00
2022-10-04T21:13:55.458Z,100.00
2022-10-04T21:19:32.031Z,100.00
2022-10-04T21:24:54.355Z,100.00
2022-10-04T21:29:56.750Z,100.00
2022-10-04T21:34:58.296Z,100.00
2022-10-04T21:39:59.963Z,100.00
2022-10-04T21:45:01.574Z,100.00
2022-10-04T21:50:03.253Z,100.00
2022-10-04T21:55:05.214Z,100.00
2022-10-04T22:00:07.516Z,100.00
2022-10-04T22:05:13.901Z,100.00
2022-10-04T22:10:15.546Z,100.00
2022-10-04T22:15:17.136Z,100.00
2022-10-04T22:20:18.673Z,100.00
2022-10-04T22:25:23.053Z,100.00
2022-10-04T22:30:29.769Z,100.00
2022-10-04T22:35:31.462Z,100.00
2022-10-04T22:40:33.159Z,100.00
2022-10-04T22:45:34.759Z,100.00
2022-10-04T22:50:37.338Z,100.00
2022-10-04T22:55:40.514Z,100.00
2022-10-04T23:00:43.439Z,100.00
2022-10-04T23:05:44.958Z,100.00
2022-10-04T23:10:46.573Z,100.00
2022-10-04T23:15:48.151Z,100.00
2022-10-04T23:20:55.577Z,100.00
2022-10-04T23:25:57.216Z,100.00
2022-10-04T23:31:04.971Z,100.00
2022-10-04T23:36:13.831Z,100.00
2022-10-04T23:41:18.001Z,100.00
2022-10-04T23:46:23.385Z,100.00
2022-10-04T23:51:25.006Z,100.00
2022-10-04T23:56:29.232Z,100.00
